sensor_id;sensor_type;location;lat;lon;timestamp;pressure;altitude;pressure_sealevel;temperature;humidity
62942;BME280;49042;47.318;19.874;2024-03-08T00:01:45;100829.81;;;5.96;100.00
62942;BME280;49042;47.318;19.874;2024-03-08T00:04:48;100825.84;;;6.03;100.00
62942;BME280;49042;47.318;19.874;2024-03-08T00:07:49;100831.75;;;6.00;100.00
62942;BME280;49042;47.318;19.874;2024-03-08T00:10:51;100822.09;;;5.98;100.00
62942;BME280;49042;47.318;19.874;2024-03-08T00:13:53;100817.59;;;5.78;100.00
62942;BME280;49042;47.318;19.874;2024-03-08T00:16:54;100821.88;;;5.78;100.00
62942;BME280;49042;47.318;19.874;2024-03-08T00:19:56;100816.28;;;6.02;100.00
62942;BME280;49042;47.318;19.874;2024-03-08T00:22:58;100820.69;;;5.88;100.00
62942;BME280;49042;47.318;19.874;2024-03-08T00:26:00;100818.62;;;5.97;100.00
62942;BME280;49042;47.318;19.874;2024-03-08T00:29:02;100820.63;;;5.86;100.00
62942;BME280;49042;47.318;19.874;2024-03-08T00:32:04;100821.88;;;5.93;100.00
62942;BME280;49042;47.318;19.874;2024-03-08T00:35:07;100820.84;;;6.06;100.00
62942;BME280;49042;47.318;19.874;2024-03-08T00:38:09;100822.50;;;5.89;100.00
62942;BME280;49042;47.318;19.874;2024-03-08T00:41:11;100824.44;;;5.93;100.00
62942;BME280;49042;47.318;19.874;2024-03-08T00:44:13;100813.37;;;5.96;100.00
62942;BME280;49042;47.318;19.874;2024-03-08T00:47:14;100815.31;;;6.15;100.00
62942;BME280;49042;47.318;19.874;2024-03-08T00:50:16;100807.97;;;6.23;100.00
62942;BME280;49042;47.318;19.874;2024-03-08T00:53:19;100809.16;;;6.13;100.00
62942;BME280;49042;47.318;19.874;2024-03-08T00:56:21;100805.38;;;6.08;100.00
62942;BME280;49042;47.318;19.874;2024-03-08T00:59:22;100803.78;;;6.25;100.00
62942;BME280;49042;47.318;19.874;2024-03-08T01:02:24;100804.41;;;6.06;100.00
62942;BME280;49042;47.318;19.874;2024-03-08T01:05:26;100810.16;;;6.00;100.00
62942;BME280;49042;47.318;19.874;2024-03-08T01:08:28;100803.37;;;5.87;100.00
62942;BME280;49042;47.318;19.874;2024-03-08T01:11:30;100805.97;;;5.87;100.00
62942;BME280;49042;47.318;19.874;2024-03-08T01:14:32;100807.03;;;5.91;100.00
62942;BME280;49042;47.318;19.874;2024-03-08T01:17:34;100807.19;;;5.94;100.00
62942;BME280;49042;47.318;19.874;2024-03-08T01:20:36;100807.28;;;5.95;100.00
62942;BME280;49042;47.318;19.874;2024-03-08T01:23:38;100809.53;;;5.89;100.00
62942;BME280;49042;47.318;19.874;2024-03-08T01:26:40;100809.31;;;6.01;100.00
62942;BME280;49042;47.318;19.874;2024-03-08T01:29:42;100810.50;;;5.91;100.00
62942;BME280;49042;47.318;19.874;2024-03-08T01:32:44;100815.56;;;6.05;100.00
62942;BME280;49042;47.318;19.874;2024-03-08T01:35:46;100812.56;;;5.97;100.00
62942;BME280;49042;47.318;19.874;2024-03-08T01:38:47;100813.37;;;5.96;100.00
62942;BME280;49042;47.318;19.874;2024-03-08T01:41:49;100811.75;;;5.98;100.00
62942;BME280;49042;47.318;19.874;2024-03-08T01:44:51;100804.06;;;5.99;100.00
62942;BME280;49042;47.318;19.874;2024-03-08T01:47:53;100805.50;;;6.09;100.00
62942;BME280;49042;47.318;19.874;2024-03-08T01:50:58;100810.22;;;6.17;100.00
62942;BME280;49042;47.318;19.874;2024-03-08T01:54:00;100810.69;;;6.09;100.00
62942;BME280;49042;47.318;19.874;2024-03-08T01:57:05;100814.59;;;6.18;100.00
62942;BME280;49042;47.318;19.874;2024-03-08T02:00:07;100812.66;;;6.14;100.00
62942;BME280;49042;47.318;19.874;2024-03-08T02:03:12;100808.59;;;6.19;100.00
62942;BME280;49042;47.318;19.874;2024-03-08T02:06:14;100811.53;;;6.25;100.00
62942;BME280;49042;47.318;19.874;2024-03-08T02:09:18;100805.94;;;6.17;100.00
62942;BME280;49042;47.318;19.874;2024-03-08T02:12:20;100810.47;;;6.06;100.00
62942;BME280;49042;47.318;19.874;2024-03-08T02:15:24;100805.31;;;6.21;100.00
62942;BME280;49042;47.318;19.874;2024-03-08T02:18:28;100807.91;;;5.91;100.00
62942;BME280;49042;47.318;19.874;2024-03-08T02:21:31;100806.09;;;6.20;100.00
62942;BME280;49042;47.318;19.874;2024-03-08T02:24:33;100808.59;;;6.19;100.00
62942;BME280;49042;47.318;19.874;2024-03-08T02:27:35;100802.75;;;5.91;100.00
62942;BME280;49042;47.318;19.874;2024-03-08T02:30:37;100811.28;;;6.05;100.00
62942;BME280;49042;47.318;19.874;2024-03-08T02:33:39;100804.16;;;6.01;100.00
62942;BME280;49042;47.318;19.874;2024-03-08T02:36:41;100807.91;;;5.91;100.00
62942;BME280;49042;47.318;19.874;2024-03-08T02:39:43;100813.81;;;5.88;100.00
62942;BME280;49042;47.318;19.874;2024-03-08T02:42:45;100813.53;;;5.99;100.00
62942;BME280;49042;47.318;19.874;2024-03-08T02:45:47;100815.63;;;5.89;100.00
62942;BME280;49042;47.318;19.874;2024-03-08T02:48:49;100815.72;;;5.76;100.00
62942;BME280;49042;47.318;19.874;2024-03-08T02:51:51;100816.25;;;5.85;100.00
62942;BME280;49042;47.318;19.874;2024-03-08T02:54:52;100814.62;;;5.87;100.00
62942;BME280;49042;47.318;19.874;2024-03-08T02:57:55;100816.13;;;5.99;100.00
62942;BME280;49042;47.318;19.874;2024-03-08T03:00:56;100810.00;;;5.82;100.00
62942;BME280;49042;47.318;19.874;2024-03-08T03:03:59;100817.56;;;5.94;100.00
62942;BME280;49042;47.318;19.874;2024-03-08T03:07:01;100817.47;;;5.92;100.00
62942;BME280;49042;47.318;19.874;2024-03-08T03:10:03;100817.25;;;5.72;100.00
62942;BME280;49042;47.318;19.874;2024-03-08T03:13:05;100834.81;;;5.63;100.00
62942;BME280;49042;47.318;19.874;2024-03-08T03:16:07;100828.19;;;5.83;100.00
62942;BME280;49042;47.318;19.874;2024-03-08T03:19:08;100832.97;;;5.60;100.00
62942;BME280;49042;47.318;19.874;2024-03-08T03:22:10;100835.38;;;5.57;100.00
62942;BME280;49042;47.318;19.874;2024-03-08T03:25:12;100836.69;;;5.65;100.00
62942;BME280;49042;47.318;19.874;2024-03-08T03:28:14;100826.72;;;5.72;100.00
62942;BME280;49042;47.318;19.874;2024-03-08T03:31:19;100831.09;;;5.57;100.00
62942;BME280;49042;47.318;19.874;2024-03-08T03:34:21;100827.34;;;5.67;100.00
62942;BME280;49042;47.318;19.874;2024-03-08T03:37:24;100828.12;;;5.82;100.00
62942;BME280;49042;47.318;19.874;2024-03-08T03:40:25;100822.88;;;5.65;100.00
62942;BME280;49042;47.318;19.874;2024-03-08T03:43:27;100834.09;;;5.81;100.00
62942;BME280;49042;47.318;19.874;2024-03-08T03:46:29;100828.75;;;5.77;100.00
62942;BME280;49042;47.318;19.874;2024-03-08T03:49:31;100829.53;;;5.76;100.00
62942;BME280;49042;47.318;19.874;2024-03-08T03:52:33;100832.06;;;5.90;100.00
62942;BME280;49042;47.318;19.874;2024-03-08T03:55:35;100835.88;;;5.82;100.00
62942;BME280;49042;47.318;19.874;2024-03-08T03:58:38;100828.12;;;5.82;100.00
62942;BME280;49042;47.318;19.874;2024-03-08T04:01:44;100825.88;;;5.88;100.00
62942;BME280;49042;47.318;19.874;2024-03-08T04:04:47;100835.44;;;5.89;100.00
62942;BME280;49042;47.318;19.874;2024-03-08T04:07:49;100832.69;;;5.71;100.00
62942;BME280;49042;47.318;19.874;2024-03-08T04:10:50;100826.09;;;5.61;100.00
62942;BME280;49042;47.318;19.874;2024-03-08T04:13:52;100836.34;;;5.74;100.00
62942;BME280;49042;47.318;19.874;2024-03-08T04:16:55;100825.31;;;5.94;100.00
62942;BME280;49042;47.318;19.874;2024-03-08T04:19:57;100830.50;;;6.09;100.00
62942;BME280;49042;47.318;19.874;2024-03-08T04:22:59;100830.81;;;5.68;100.00
62942;BME280;49042;47.318;19.874;2024-03-08T04:26:04;100827.34;;;5.67;100.00
62942;BME280;49042;47.318;19.874;2024-03-08T04:29:07;100827.31;;;5.83;100.00
62942;BME280;49042;47.318;19.874;2024-03-08T04:32:09;100826.94;;;5.92;100.00
62942;BME280;49042;47.318;19.874;2024-03-08T04:35:11;100835.53;;;5.75;100.00
62942;BME280;49042;47.318;19.874;2024-03-08T04:38:14;100837.34;;;5.61;100.00
62942;BME280;49042;47.318;19.874;2024-03-08T04:41:17;100840.34;;;5.69;100.00
62942;BME280;49042;47.318;19.874;2024-03-08T04:44:20;100835.62;;;5.77;100.00
62942;BME280;49042;47.318;19.874;2024-03-08T04:47:22;100841.72;;;5.47;100.00
62942;BME280;49042;47.318;19.874;2024-03-08T04:50:23;100838.19;;;5.77;100.00
62942;BME280;49042;47.318;19.874;2024-03-08T04:53:25;100848.19;;;5.55;100.00
62942;BME280;49042;47.318;19.874;2024-03-08T04:56:27;100848.09;;;5.69;100.00
62942;BME280;49042;47.318;19.874;2024-03-08T04:59:29;100843.37;;;5.77;100.00
62942;BME280;49042;47.318;19.874;2024-03-08T05:02:31;100852.31;;;5.67;100.00
62942;BME280;49042;47.318;19.874;2024-03-08T05:05:33;100855.53;;;5.48;100.00
62942;BME280;49042;47.318;19.874;2024-03-08T05:08:35;100856.97;;;5.57;100.00
62942;BME280;49042;47.318;19.874;2024-03-08T05:11:36;100859.09;;;5.50;100.00
62942;BME280;49042;47.318;19.874;2024-03-08T05:14:38;100855.34;;;5.60;100.00
62942;BME280;49042;47.318;19.874;2024-03-08T05:17:41;100857.06;;;5.44;100.00
62942;BME280;49042;47.318;19.874;2024-03-08T05:20:43;100861.66;;;5.34;100.00
62942;BME280;49042;47.318;19.874;2024-03-08T05:23:45;100853.81;;;5.18;100.00
62942;BME280;49042;47.318;19.874;2024-03-08T05:26:47;100855.66;;;5.20;100.00
62942;BME280;49042;47.318;19.874;2024-03-08T05:29:49;100869.69;;;5.24;100.00
62942;BME280;49042;47.318;19.874;2024-03-08T05:32:51;100867.47;;;5.45;100.00
62942;BME280;49042;47.318;19.874;2024-03-08T05:35:53;100865.41;;;5.24;100.00
62942;BME280;49042;47.318;19.874;2024-03-08T05:38:55;100871.13;;;5.34;100.00
62942;BME280;49042;47.318;19.874;2024-03-08T05:41:57;100867.19;;;5.25;100.00
62942;BME280;49042;47.318;19.874;2024-03-08T05:44:59;100873.69;;;5.19;100.00
62942;BME280;49042;47.318;19.874;2024-03-08T05:48:00;100879.53;;;5.30;100.00
62942;BME280;49042;47.318;19.874;2024-03-08T05:51:03;100880.87;;;5.53;100.00
62942;BME280;49042;47.318;19.874;2024-03-08T05:54:06;100886.78;;;5.51;100.00
62942;BME280;49042;47.318;19.874;2024-03-08T05:57:08;100889.88;;;5.45;100.00
62942;BME280;49042;47.318;19.874;2024-03-08T06:00:10;100892.44;;;5.45;100.00
62942;BME280;49042;47.318;19.874;2024-03-08T06:03:12;100897.63;;;5.45;100.00
62942;BME280;49042;47.318;19.874;2024-03-08T06:06:15;100895.78;;;5.57;100.00
62942;BME280;49042;47.318;19.874;2024-03-08T06:09:17;100897.91;;;5.50;100.00
62942;BME280;49042;47.318;19.874;2024-03-08T06:12:19;100896.72;;;5.44;100.00
62942;BME280;49042;47.318;19.874;2024-03-08T06:15:21;100889.62;;;5.40;100.00
62942;BME280;49042;47.318;19.874;2024-03-08T06:18:23;100898.53;;;5.45;100.00
62942;BME280;49042;47.318;19.874;2024-03-08T06:21:24;100901.44;;;5.21;100.00
62942;BME280;49042;47.318;19.874;2024-03-08T06:24:29;100897.81;;;5.33;100.00
62942;BME280;49042;47.318;19.874;2024-03-08T06:27:31;100900.94;;;5.42;100.00
62942;BME280;49042;47.318;19.874;2024-03-08T06:30:35;100898.31;;;5.27;100.00
62942;BME280;49042;47.318;19.874;2024-03-08T06:33:37;100908.16;;;5.48;100.00
62942;BME280;49042;47.318;19.874;2024-03-08T06:36:39;100904.94;;;5.37;100.00
62942;BME280;49042;47.318;19.874;2024-03-08T06:39:41;100904.63;;;5.61;100.00
62942;BME280;49042;47.318;19.874;2024-03-08T06:42:43;100902.38;;;5.37;100.00
62942;BME280;49042;47.318;19.874;2024-03-08T06:45:48;100906.47;;;5.49;100.00
62942;BME280;49042;47.318;19.874;2024-03-08T06:48:52;100910.84;;;5.50;100.00
62942;BME280;49042;47.318;19.874;2024-03-08T06:51:54;100916.09;;;5.51;100.00
62942;BME280;49042;47.318;19.874;2024-03-08T06:54:55;100912.66;;;5.51;100.00
62942;BME280;49042;47.318;19.874;2024-03-08T06:57:58;100917.84;;;5.81;100.00
62942;BME280;49042;47.318;19.874;2024-03-08T07:01:00;100918.31;;;5.45;100.00
62942;BME280;49042;47.318;19.874;2024-03-08T07:04:06;100928.59;;;5.59;100.00
62942;BME280;49042;47.318;19.874;2024-03-08T07:07:08;100939.44;;;5.82;100.00
62942;BME280;49042;47.318;19.874;2024-03-08T07:10:12;100937.44;;;5.62;100.00
62942;BME280;49042;47.318;19.874;2024-03-08T07:13:16;100928.34;;;5.69;100.00
62942;BME280;49042;47.318;19.874;2024-03-08T07:16:18;100928.47;;;5.86;100.00
62942;BME280;49042;47.318;19.874;2024-03-08T07:19:20;100931.50;;;5.78;100.00
62942;BME280;49042;47.318;19.874;2024-03-08T07:22:23;100931.75;;;5.98;100.00
62942;BME280;49042;47.318;19.874;2024-03-08T07:25:25;100933.81;;;5.89;100.00
62942;BME280;49042;47.318;19.874;2024-03-08T07:28:30;100933.09;;;5.76;100.00
62942;BME280;49042;47.318;19.874;2024-03-08T07:31:32;100933.03;;;5.90;100.00
62942;BME280;49042;47.318;19.874;2024-03-08T07:34:43;100935.97;;;5.96;100.00
62942;BME280;49042;47.318;19.874;2024-03-08T07:37:45;100935.28;;;6.14;100.00
62942;BME280;49042;47.318;19.874;2024-03-08T07:40:47;100936.84;;;6.27;100.00
62942;BME280;49042;47.318;19.874;2024-03-08T07:43:49;100945.69;;;6.31;100.00
62942;BME280;49042;47.318;19.874;2024-03-08T07:46:51;100940.97;;;6.08;100.00
62942;BME280;49042;47.318;19.874;2024-03-08T07:49:57;100939.63;;;6.00;100.00
62942;BME280;49042;47.318;19.874;2024-03-08T07:53:02;100943.56;;;6.08;100.00
62942;BME280;49042;47.318;19.874;2024-03-08T07:56:05;100943.13;;;6.00;100.00
62942;BME280;49042;47.318;19.874;2024-03-08T07:59:07;100940.25;;;6.26;100.00
62942;BME280;49042;47.318;19.874;2024-03-08T08:02:09;100941.91;;;6.41;100.00
62942;BME280;49042;47.318;19.874;2024-03-08T08:05:11;100941.59;;;6.35;100.00
62942;BME280;49042;47.318;19.874;2024-03-08T08:08:13;100942.22;;;6.30;100.00
62942;BME280;49042;47.318;19.874;2024-03-08T08:11:15;100937.75;;;6.43;100.00
62942;BME280;49042;47.318;19.874;2024-03-08T08:14:17;100940.69;;;6.34;100.00
62942;BME280;49042;47.318;19.874;2024-03-08T08:17:19;100938.41;;;6.56;100.00
62942;BME280;49042;47.318;19.874;2024-03-08T08:20:21;100939.53;;;6.61;100.00
62942;BME280;49042;47.318;19.874;2024-03-08T08:23:24;100929.66;;;7.02;100.00
62942;BME280;49042;47.318;19.874;2024-03-08T08:26:26;100931.75;;;6.61;100.00
62942;BME280;49042;47.318;19.874;2024-03-08T08:29:28;100928.59;;;6.82;100.00
62942;BME280;49042;47.318;19.874;2024-03-08T08:32:30;100934.69;;;7.16;100.00
62942;BME280;49042;47.318;19.874;2024-03-08T08:35:31;100924.91;;;7.10;100.00
62942;BME280;49042;47.318;19.874;2024-03-08T08:38:34;100926.44;;;7.06;100.00
62942;BME280;49042;47.318;19.874;2024-03-08T08:41:36;100934.53;;;7.13;100.00
62942;BME280;49042;47.318;19.874;2024-03-08T08:44:38;100927.47;;;7.27;100.00
62942;BME280;49042;47.318;19.874;2024-03-08T08:47:39;100928.22;;;7.24;100.00
62942;BME280;49042;47.318;19.874;2024-03-08T08:50:44;100923.47;;;7.50;100.00
62942;BME280;49042;47.318;19.874;2024-03-08T08:53:46;100924.34;;;7.68;100.00
62942;BME280;49042;47.318;19.874;2024-03-08T08:56:49;100920.75;;;8.38;100.00
62942;BME280;49042;47.318;19.874;2024-03-08T08:59:51;100917.56;;;8.07;100.00
62942;BME280;49042;47.318;19.874;2024-03-08T09:02:52;100918.09;;;8.36;100.00
62942;BME280;49042;47.318;19.874;2024-03-08T09:05:56;100922.69;;;7.87;100.00
62942;BME280;49042;47.318;19.874;2024-03-08T09:08:58;100924.03;;;7.97;100.00
62942;BME280;49042;47.318;19.874;2024-03-08T09:12:02;100914.53;;;7.97;100.00
62942;BME280;49042;47.318;19.874;2024-03-08T09:15:04;100922.13;;;8.29;100.00
62942;BME280;49042;47.318;19.874;2024-03-08T09:18:06;100919.53;;;8.29;100.00
62942;BME280;49042;47.318;19.874;2024-03-08T09:21:08;100922.47;;;8.55;100.00
62942;BME280;49042;47.318;19.874;2024-03-08T09:24:14;100918.78;;;8.32;100.00
62942;BME280;49042;47.318;19.874;2024-03-08T09:27:17;100919.56;;;8.49;100.00
62942;BME280;49042;47.318;19.874;2024-03-08T09:30:19;100918.97;;;8.00;100.00
62942;BME280;49042;47.318;19.874;2024-03-08T09:33:23;100914.44;;;7.96;100.00
62942;BME280;49042;47.318;19.874;2024-03-08T09:36:24;100921.06;;;8.44;100.00
62942;BME280;49042;47.318;19.874;2024-03-08T09:39:26;100910.12;;;8.70;100.00
62942;BME280;49042;47.318;19.874;2024-03-08T09:42:32;100908.78;;;8.60;100.00
62942;BME280;49042;47.318;19.874;2024-03-08T09:45:36;100914.38;;;8.31;100.00
62942;BME280;49042;47.318;19.874;2024-03-08T09:48:43;100919.78;;;7.99;100.00
62942;BME280;49042;47.318;19.874;2024-03-08T09:51:45;100920.84;;;8.39;100.00
62942;BME280;49042;47.318;19.874;2024-03-08T09:54:47;100918.84;;;8.15;100.00
62942;BME280;49042;47.318;19.874;2024-03-08T09:57:51;100919.56;;;7.94;100.00
62942;BME280;49042;47.318;19.874;2024-03-08T10:01:12;100914.22;;;7.91;100.00
62942;BME280;49042;47.318;19.874;2024-03-08T10:04:14;100922.53;;;7.84;100.00
62942;BME280;49042;47.318;19.874;2024-03-08T10:07:15;100926.53;;;7.95;100.00
62942;BME280;49042;47.318;19.874;2024-03-08T10:10:17;100917.88;;;8.31;100.00
62942;BME280;49042;47.318;19.874;2024-03-08T10:13:19;100922.63;;;8.40;100.00
62942;BME280;49042;47.318;19.874;2024-03-08T10:16:22;100924.47;;;8.06;100.00
62942;BME280;49042;47.318;19.874;2024-03-08T10:19:26;100924.41;;;8.41;100.00
62942;BME280;49042;47.318;19.874;2024-03-08T10:22:29;100934.81;;;8.05;100.00
62942;BME280;49042;47.318;19.874;2024-03-08T10:25:32;100924.56;;;8.44;100.00
62942;BME280;49042;47.318;19.874;2024-03-08T10:28:34;100923.91;;;8.87;100.00
62942;BME280;49042;47.318;19.874;2024-03-08T10:31:35;100922.41;;;8.72;100.00
62942;BME280;49042;47.318;19.874;2024-03-08T10:34:37;100925.81;;;8.71;100.00
62942;BME280;49042;47.318;19.874;2024-03-08T10:37:47;100930.50;;;8.60;100.00
62942;BME280;49042;47.318;19.874;2024-03-08T10:40:50;100926.94;;;8.21;100.00
62942;BME280;49042;47.318;19.874;2024-03-08T10:47:30;100925.81;;;7.98;100.00
62942;BME280;49042;47.318;19.874;2024-03-08T10:50:33;100927.09;;;8.24;100.00
62942;BME280;49042;47.318;19.874;2024-03-08T10:53:36;100923.44;;;8.76;100.00
62942;BME280;49042;47.318;19.874;2024-03-08T10:56:41;100923.44;;;8.57;100.00
62942;BME280;49042;47.318;19.874;2024-03-08T10:59:42;100914.25;;;8.64;100.00
62942;BME280;49042;47.318;19.874;2024-03-08T11:02:45;100909.50;;;8.94;100.00
62942;BME280;49042;47.318;19.874;2024-03-08T11:05:47;100910.78;;;8.84;100.00
62942;BME280;49042;47.318;19.874;2024-03-08T11:08:50;100910.75;;;9.22;100.00
62942;BME280;49042;47.318;19.874;2024-03-08T11:11:52;100904.28;;;9.34;100.00
62942;BME280;49042;47.318;19.874;2024-03-08T11:14:54;100904.41;;;9.37;100.00
62942;BME280;49042;47.318;19.874;2024-03-08T11:17:58;100913.19;;;9.39;100.00
62942;BME280;49042;47.318;19.874;2024-03-08T11:21:10;100905.22;;;9.77;100.00
62942;BME280;49042;47.318;19.874;2024-03-08T11:24:14;100903.66;;;9.81;100.00
62942;BME280;49042;47.318;19.874;2024-03-08T11:27:17;100904.19;;;9.52;100.00
62942;BME280;49042;47.318;19.874;2024-03-08T11:30:21;100894.78;;;9.14;100.00
62942;BME280;49042;47.318;19.874;2024-03-08T11:33:30;100894.97;;;8.99;100.00
62942;BME280;49042;47.318;19.874;2024-03-08T11:36:34;100885.38;;;8.98;100.00
62942;BME280;49042;47.318;19.874;2024-03-08T11:39:54;100883.69;;;9.18;100.00
62942;BME280;49042;47.318;19.874;2024-03-08T11:43:04;100894.84;;;8.96;100.00
62942;BME280;49042;47.318;19.874;2024-03-08T11:46:10;100878.13;;;8.91;100.00
62942;BME280;49042;47.318;19.874;2024-03-08T11:49:12;100881.00;;;9.17;100.00
62942;BME280;49042;47.318;19.874;2024-03-08T11:52:18;100879.44;;;9.01;100.00
62942;BME280;49042;47.318;19.874;2024-03-08T11:55:20;100882.47;;;9.51;100.00
62942;BME280;49042;47.318;19.874;2024-03-08T11:58:22;100876.53;;;9.34;100.00
62942;BME280;49042;47.318;19.874;2024-03-08T12:01:24;100881.06;;;8.98;100.00
62942;BME280;49042;47.318;19.874;2024-03-08T12:04:27;100877.78;;;8.83;100.00
62942;BME280;49042;47.318;19.874;2024-03-08T12:07:29;100865.69;;;9.03;100.00
62942;BME280;49042;47.318;19.874;2024-03-08T12:10:33;100864.03;;;9.05;100.00
62942;BME280;49042;47.318;19.874;2024-03-08T12:13:36;100873.28;;;9.81;100.00
62942;BME280;49042;47.318;19.874;2024-03-08T12:16:38;100858.91;;;9.91;100.00
62942;BME280;49042;47.318;19.874;2024-03-08T12:19:40;100858.66;;;9.85;100.00
62942;BME280;49042;47.318;19.874;2024-03-08T12:22:47;100853.56;;;10.33;100.00
62942;BME280;49042;47.318;19.874;2024-03-08T12:25:50;100860.69;;;9.49;100.00
62942;BME280;49042;47.318;19.874;2024-03-08T12:28:52;100855.28;;;9.66;100.00
62942;BME280;49042;47.318;19.874;2024-03-08T12:31:57;100857.69;;;9.83;100.00
62942;BME280;49042;47.318;19.874;2024-03-08T12:35:00;100862.06;;;9.41;100.00
62942;BME280;49042;47.318;19.874;2024-03-08T12:38:02;100856.97;;;9.44;100.00
62942;BME280;49042;47.318;19.874;2024-03-08T12:41:04;100860.03;;;9.34;100.00
62942;BME280;49042;47.318;19.874;2024-03-08T12:44:06;100865.81;;;8.86;100.00
62942;BME280;49042;47.318;19.874;2024-03-08T12:47:12;100860.81;;;8.71;100.00
62942;BME280;49042;47.318;19.874;2024-03-08T12:50:14;100868.09;;;8.60;100.00
62942;BME280;49042;47.318;19.874;2024-03-08T12:53:18;100867.97;;;8.39;100.00
62942;BME280;49042;47.318;19.874;2024-03-08T12:56:29;100873.63;;;8.30;100.00
62942;BME280;49042;47.318;19.874;2024-03-08T12:59:32;100874.72;;;8.17;100.00
62942;BME280;49042;47.318;19.874;2024-03-08T13:02:33;100867.44;;;8.28;100.00
62942;BME280;49042;47.318;19.874;2024-03-08T13:05:37;100858.06;;;8.68;100.00
62942;BME280;49042;47.318;19.874;2024-03-08T13:08:41;100856.63;;;9.15;100.00
62942;BME280;49042;47.318;19.874;2024-03-08T13:11:45;100851.41;;;9.35;100.00
62942;BME280;49042;47.318;19.874;2024-03-08T13:14:47;100847.09;;;9.15;100.00
62942;BME280;49042;47.318;19.874;2024-03-08T13:17:49;100850.16;;;9.26;100.00
62942;BME280;49042;47.318;19.874;2024-03-08T13:20:51;100847.19;;;9.17;100.00
62942;BME280;49042;47.318;19.874;2024-03-08T13:23:53;100845.25;;;9.13;100.00
62942;BME280;49042;47.318;19.874;2024-03-08T13:26:56;100840.28;;;8.97;100.00
62942;BME280;49042;47.318;19.874;2024-03-08T13:29:59;100829.66;;;8.93;100.00
62942;BME280;49042;47.318;19.874;2024-03-08T13:33:01;100826.09;;;8.91;100.00
62942;BME280;49042;47.318;19.874;2024-03-08T13:36:07;100816.28;;;9.05;100.00
62942;BME280;49042;47.318;19.874;2024-03-08T13:39:16;100819.16;;;9.74;100.00
62942;BME280;49042;47.318;19.874;2024-03-08T13:42:17;100818.97;;;10.14;100.00
62942;BME280;49042;47.318;19.874;2024-03-08T13:45:20;100806.03;;;10.63;100.00
62942;BME280;49042;47.318;19.874;2024-03-08T13:48:26;100812.00;;;11.10;100.00
62942;BME280;49042;47.318;19.874;2024-03-08T13:51:27;100811.34;;;11.16;100.00
62942;BME280;49042;47.318;19.874;2024-03-08T13:54:30;100806.63;;;11.31;100.00
62942;BME280;49042;47.318;19.874;2024-03-08T13:57:33;100807.25;;;11.50;100.00
62942;BME280;49042;47.318;19.874;2024-03-08T14:00:36;100800.59;;;12.16;100.00
62942;BME280;49042;47.318;19.874;2024-03-08T14:03:38;100804.09;;;11.61;100.00
62942;BME280;49042;47.318;19.874;2024-03-08T14:06:43;100802.72;;;11.44;100.00
62942;BME280;49042;47.318;19.874;2024-03-08T14:09:51;100795.06;;;10.49;100.00
62942;BME280;49042;47.318;19.874;2024-03-08T14:12:54;100808.81;;;10.22;100.00
62942;BME280;49042;47.318;19.874;2024-03-08T14:15:56;100808.16;;;9.81;100.00
62942;BME280;49042;47.318;19.874;2024-03-08T14:18:58;100803.88;;;9.83;100.00
62942;BME280;49042;47.318;19.874;2024-03-08T14:22:05;100801.97;;;9.79;100.00
62942;BME280;49042;47.318;19.874;2024-03-08T14:25:07;100789.37;;;9.90;100.00
62942;BME280;49042;47.318;19.874;2024-03-08T14:28:18;100796.03;;;10.28;100.00
62942;BME280;49042;47.318;19.874;2024-03-08T14:31:20;100795.25;;;10.31;100.00
62942;BME280;49042;47.318;19.874;2024-03-08T14:34:27;100785.53;;;10.26;100.00
62942;BME280;49042;47.318;19.874;2024-03-08T14:37:31;100789.66;;;10.44;100.00
62942;BME280;49042;47.318;19.874;2024-03-08T14:40:32;100785.13;;;10.15;100.00
62942;BME280;49042;47.318;19.874;2024-03-08T14:43:34;100790.25;;;9.46;100.00
62942;BME280;49042;47.318;19.874;2024-03-08T14:46:36;100793.34;;;9.80;100.00
62942;BME280;49042;47.318;19.874;2024-03-08T14:49:38;100786.06;;;9.50;100.00
62942;BME280;49042;47.318;19.874;2024-03-08T14:52:41;100787.25;;;9.37;100.00
62942;BME280;49042;47.318;19.874;2024-03-08T14:55:44;100791.28;;;9.28;100.00
62942;BME280;49042;47.318;19.874;2024-03-08T14:58:49;100787.66;;;9.05;100.00
62942;BME280;49042;47.318;19.874;2024-03-08T15:01:53;100779.69;;;8.80;100.00
62942;BME280;49042;47.318;19.874;2024-03-08T15:04:55;100775.50;;;9.04;100.00
62942;BME280;49042;47.318;19.874;2024-03-08T15:08:03;100781.72;;;9.07;100.00
62942;BME280;49042;47.318;19.874;2024-03-08T15:11:12;100772.84;;;9.24;100.00
62942;BME280;49042;47.318;19.874;2024-03-08T15:14:23;100775.25;;;8.77;100.00
62942;BME280;49042;47.318;19.874;2024-03-08T15:17:26;100777.13;;;9.02;100.00
62942;BME280;49042;47.318;19.874;2024-03-08T15:20:28;100779.72;;;9.02;100.00
62942;BME280;49042;47.318;19.874;2024-03-08T15:23:35;100778.09;;;8.84;100.00
62942;BME280;49042;47.318;19.874;2024-03-08T15:26:37;100792.44;;;8.74;100.00
62942;BME280;49042;47.318;19.874;2024-03-08T15:29:39;100787.22;;;8.74;100.00
62942;BME280;49042;47.318;19.874;2024-03-08T15:32:44;100782.31;;;8.60;100.00
62942;BME280;49042;47.318;19.874;2024-03-08T15:35:46;100787.34;;;8.57;100.00
62942;BME280;49042;47.318;19.874;2024-03-08T15:38:52;100786.69;;;8.61;100.00
62942;BME280;49042;47.318;19.874;2024-03-08T15:41:53;100785.13;;;8.65;100.00
62942;BME280;49042;47.318;19.874;2024-03-08T15:44:56;100790.47;;;8.50;100.00
62942;BME280;49042;47.318;19.874;2024-03-08T15:47:58;100791.25;;;8.47;100.00